createdAt,value
2018-07-31T00:01:14.958Z,19.80
2018-07-31T00:03:45.249Z,19.80
2018-07-31T00:06:23.285Z,19.70
2018-07-31T00:08:55.565Z,19.70
2018-07-31T00:11:26.056Z,19.70
2018-07-31T00:13:56.314Z,19.70
2018-07-31T00:16:26.605Z,19.70
2018-07-31T00:18:56.875Z,19.70
2018-07-31T00:21:27.285Z,19.60
2018-07-31T00:23:57.605Z,19.60
2018-07-31T00:26:27.886Z,19.60
2018-07-31T00:28:58.245Z,19.60
2018-07-31T00:31:28.501Z,19.60
2018-07-31T00:33:58.797Z,19.50
2018-07-31T00:36:29.109Z,19.50
2018-07-31T00:38:59.443Z,19.40
2018-07-31T00:41:29.742Z,19.40
2018-07-31T00:44:00.025Z,19.40
2018-07-31T00:46:30.338Z,19.40
2018-07-31T00:49:00.654Z,19.40
2018-07-31T00:51:30.944Z,19.30
2018-07-31T00:54:01.252Z,19.30
2018-07-31T00:56:31.545Z,19.30
2018-07-31T00:59:01.845Z,19.30
2018-07-31T01:01:32.102Z,19.30
2018-07-31T01:04:02.400Z,19.30
2018-07-31T01:06:37.608Z,19.30
2018-07-31T01:09:10.522Z,19.20
2018-07-31T01:11:41.192Z,19.20
2018-07-31T01:14:11.618Z,19.20
2018-07-31T01:16:42.508Z,19.20
2018-07-31T01:19:12.753Z,19.10
2018-07-31T01:21:43.063Z,19.10
2018-07-31T01:24:13.324Z,19.10
2018-07-31T01:26:43.641Z,19.00
2018-07-31T01:29:14.008Z,19.00
2018-07-31T01:31:44.251Z,19.00
2018-07-31T01:34:14.535Z,19.00
2018-07-31T01:36:44.781Z,19.00
2018-07-31T01:39:15.030Z,18.90
2018-07-31T01:41:45.341Z,18.90
2018-07-31T01:44:15.626Z,18.90
2018-07-31T01:46:45.929Z,18.90
2018-07-31T01:49:16.210Z,18.90
2018-07-31T01:51:46.488Z,18.90
2018-07-31T01:54:16.948Z,18.90
2018-07-31T01:56:47.218Z,18.90
2018-07-31T01:59:17.501Z,18.90
2018-07-31T02:01:47.783Z,18.90
2018-07-31T02:04:18.067Z,18.80
2018-07-31T02:06:48.353Z,18.80
2018-07-31T02:09:18.687Z,18.80
2018-07-31T02:11:49.261Z,18.80
2018-07-31T02:16:49.471Z,18.70
2018-07-31T02:19:19.745Z,18.70
2018-07-31T02:21:50.022Z,18.70
2018-07-31T02:24:20.342Z,18.60
2018-07-31T02:26:50.651Z,18.60
2018-07-31T02:29:26.184Z,18.60
2018-07-31T02:31:56.432Z,18.50
2018-07-31T02:34:26.800Z,18.50
2018-07-31T02:36:57.050Z,18.50
2018-07-31T02:39:27.341Z,18.40
2018-07-31T02:41:57.600Z,18.40
2018-07-31T02:44:27.894Z,18.40
2018-07-31T02:46:58.241Z,18.30
2018-07-31T02:49:28.507Z,18.30
2018-07-31T02:51:58.758Z,18.30
2018-07-31T02:54:29.057Z,18.30
2018-07-31T02:56:59.353Z,18.20
2018-07-31T02:59:29.661Z,18.20
2018-07-31T03:01:59.931Z,18.20
2018-07-31T03:04:30.240Z,18.30
2018-07-31T03:07:00.573Z,18.30
2018-07-31T03:09:30.932Z,18.30
2018-07-31T03:12:06.501Z,18.30
2018-07-31T03:14:36.827Z,18.30
2018-07-31T03:17:07.138Z,18.30
2018-07-31T03:19:37.462Z,18.30
2018-07-31T03:22:07.897Z,18.30
2018-07-31T03:24:38.221Z,18.30
2018-07-31T03:27:08.547Z,18.30
2018-07-31T03:29:38.844Z,18.30
2018-07-31T03:32:09.198Z,18.30
2018-07-31T03:34:39.501Z,18.30
2018-07-31T03:37:09.821Z,18.20
2018-07-31T03:39:40.149Z,18.20
2018-07-31T03:42:10.452Z,18.20
2018-07-31T03:44:40.751Z,18.10
2018-07-31T03:47:11.060Z,18.10
2018-07-31T03:49:41.405Z,18.20
2018-07-31T03:52:11.745Z,18.20
2018-07-31T03:54:42.124Z,18.20
2018-07-31T04:03:26.273Z,18.30
2018-07-31T04:05:56.597Z,18.30
2018-07-31T04:08:26.843Z,18.30
2018-07-31T04:10:57.080Z,18.40
2018-07-31T04:13:27.584Z,18.40
2018-07-31T04:15:57.872Z,18.40
2018-07-31T04:18:28.221Z,18.40
2018-07-31T04:20:58.524Z,18.50
2018-07-31T04:23:28.910Z,18.50
2018-07-31T04:25:59.264Z,18.50
2018-07-31T04:28:29.536Z,18.50
2018-07-31T04:31:00.094Z,18.50
2018-07-31T04:33:30.400Z,18.50
2018-07-31T04:36:00.654Z,18.60
2018-07-31T04:38:31.016Z,18.60
2018-07-31T04:41:01.320Z,18.70
2018-07-31T04:43:31.632Z,18.70
2018-07-31T04:46:01.949Z,18.70
2018-07-31T04:48:32.243Z,18.70
2018-07-31T04:51:03.455Z,18.80
2018-07-31T04:53:33.739Z,18.80
2018-07-31T04:56:04.043Z,18.90
2018-07-31T04:58:34.376Z,18.90
2018-07-31T05:01:04.709Z,18.90
2018-07-31T05:03:35.036Z,19.00
2018-07-31T05:06:05.402Z,19.00
2018-07-31T05:08:35.677Z,19.10
2018-07-31T05:11:06.010Z,19.20
2018-07-31T05:13:36.384Z,19.20
2018-07-31T05:16:06.803Z,19.30
2018-07-31T05:18:37.812Z,19.40
2018-07-31T05:21:08.433Z,19.40
2018-07-31T05:23:38.740Z,19.50
2018-07-31T05:26:09.001Z,19.50
2018-07-31T05:28:39.290Z,19.60
2018-07-31T05:31:09.611Z,19.60
2018-07-31T05:33:39.915Z,19.70
2018-07-31T05:36:10.235Z,19.80
2018-07-31T05:38:40.535Z,19.80
2018-07-31T05:41:10.829Z,19.80
2018-07-31T05:43:41.166Z,20.00
2018-07-31T05:46:11.480Z,20.00
2018-07-31T05:48:41.721Z,20.10
2018-07-31T05:51:12.016Z,20.20
2018-07-31T05:53:42.329Z,20.30
2018-07-31T05:56:12.628Z,20.40
2018-07-31T05:58:42.927Z,20.40
2018-07-31T06:01:13.204Z,20.50
2018-07-31T06:03:43.504Z,20.50
2018-07-31T06:06:13.776Z,20.50
2018-07-31T06:08:44.100Z,20.50
2018-07-31T06:11:14.404Z,20.50
2018-07-31T06:13:45.033Z,20.60
2018-07-31T06:16:15.312Z,20.60
2018-07-31T06:18:45.601Z,20.70
2018-07-31T06:21:15.902Z,20.70
2018-07-31T06:23:46.254Z,20.80
2018-07-31T06:26:16.548Z,20.90
2018-07-31T06:28:46.896Z,21.10
2018-07-31T06:31:17.211Z,21.20
2018-07-31T06:33:47.554Z,21.30
2018-07-31T06:36:17.780Z,21.40
2018-07-31T06:38:48.105Z,21.40
2018-07-31T06:41:18.960Z,21.50
2018-07-31T06:43:49.348Z,21.60
2018-07-31T06:46:19.633Z,21.70
2018-07-31T06:48:49.917Z,21.80
2018-07-31T06:51:20.183Z,21.90
2018-07-31T06:53:50.496Z,22.00
2018-07-31T06:56:20.790Z,22.10
2018-07-31T06:58:51.736Z,22.30
2018-07-31T07:01:22.077Z,22.40
2018-07-31T07:03:52.858Z,22.50
2018-07-31T07:06:23.172Z,22.60
2018-07-31T07:08:53.459Z,22.80
2018-07-31T07:11:23.882Z,22.80
2018-07-31T07:13:54.732Z,23.00
2018-07-31T07:16:25.057Z,23.10
2018-07-31T07:18:55.445Z,23.20
2018-07-31T07:21:25.704Z,23.30
2018-07-31T07:23:56.324Z,23.30
2018-07-31T07:26:26.596Z,23.50
2018-07-31T07:28:56.935Z,23.60
2018-07-31T07:31:27.245Z,23.70
2018-07-31T07:33:57.613Z,23.80
2018-07-31T07:36:27.872Z,23.90
2018-07-31T07:38:58.190Z,24.00
2018-07-31T07:41:28.517Z,24.10
2018-07-31T07:43:58.787Z,24.20
2018-07-31T07:46:29.052Z,24.40
2018-07-31T07:48:59.351Z,24.50
2018-07-31T07:51:29.625Z,24.60
2018-07-31T07:53:59.966Z,24.70
2018-07-31T07:56:30.202Z,24.80
2018-07-31T08:06:30.225Z,25.20
2018-07-31T08:09:00.594Z,25.30
2018-07-31T08:11:30.877Z,25.50
2018-07-31T08:14:01.582Z,25.60
2018-07-31T08:16:31.879Z,25.70
2018-07-31T08:19:02.239Z,25.80
2018-07-31T08:21:32.544Z,25.90
2018-07-31T08:24:02.944Z,26.10
2018-07-31T08:26:33.248Z,26.10
2018-07-31T08:29:03.607Z,26.20
2018-07-31T08:31:33.897Z,26.30
2018-07-31T08:34:04.230Z,26.40
2018-07-31T08:36:34.550Z,26.60
2018-07-31T08:41:38.019Z,26.60
2018-07-31T08:44:08.370Z,26.70
2018-07-31T08:46:38.632Z,26.70
2018-07-31T08:49:08.937Z,26.80
2018-07-31T08:51:39.213Z,26.90
2018-07-31T08:54:09.545Z,27.00
2018-07-31T08:56:39.825Z,27.10
2018-07-31T08:59:10.134Z,27.30
2018-07-31T09:01:40.504Z,27.40
2018-07-31T09:04:10.800Z,27.50
2018-07-31T09:06:41.085Z,27.60
2018-07-31T09:09:12.366Z,27.70
2018-07-31T09:11:42.675Z,27.80
2018-07-31T09:14:13.138Z,27.90
2018-07-31T09:16:43.401Z,28.00
2018-07-31T09:19:13.739Z,28.20
2018-07-31T09:21:44.048Z,28.40
2018-07-31T09:24:14.379Z,28.60
2018-07-31T09:26:44.653Z,28.70
2018-07-31T09:29:14.974Z,28.80
2018-07-31T09:31:45.265Z,28.90
2018-07-31T09:34:15.579Z,29.00
2018-07-31T09:36:45.880Z,29.20
2018-07-31T09:39:16.140Z,29.30
2018-07-31T09:41:46.459Z,29.40
2018-07-31T09:44:16.741Z,29.60
2018-07-31T09:46:47.103Z,29.70
2018-07-31T09:49:17.360Z,29.80
2018-07-31T09:51:47.674Z,29.80
2018-07-31T09:56:47.882Z,30.10
2018-07-31T09:59:18.134Z,30.20
2018-07-31T10:01:48.462Z,30.20
2018-07-31T10:04:18.794Z,30.30
2018-07-31T10:06:49.107Z,30.40
2018-07-31T10:11:49.336Z,30.40
2018-07-31T10:14:19.598Z,30.20
2018-07-31T10:16:49.910Z,30.00
2018-07-31T10:19:20.229Z,29.90
2018-07-31T10:21:50.491Z,29.70
2018-07-31T10:24:20.917Z,29.60
2018-07-31T10:26:51.260Z,29.40
2018-07-31T10:29:21.537Z,29.30
2018-07-31T10:31:51.849Z,29.30
2018-07-31T10:34:22.158Z,29.60
2018-07-31T10:36:52.464Z,29.80
2018-07-31T10:39:23.132Z,30.00
2018-07-31T10:41:53.401Z,30.00
2018-07-31T10:44:23.774Z,29.90
2018-07-31T10:46:54.083Z,29.90
2018-07-31T10:51:54.294Z,29.70
2018-07-31T10:54:24.596Z,29.70
2018-07-31T10:56:54.901Z,29.70
2018-07-31T10:59:25.213Z,29.60
2018-07-31T11:01:55.550Z,29.60
2018-07-31T11:04:25.893Z,29.70
2018-07-31T11:06:56.197Z,30.00
2018-07-31T11:09:26.487Z,30.50
2018-07-31T11:14:26.755Z,31.70
2018-07-31T11:16:57.113Z,32.20
2018-07-31T11:19:28.448Z,32.50
2018-07-31T11:21:58.777Z,32.70
2018-07-31T11:24:29.107Z,32.70
2018-07-31T11:26:59.391Z,32.80
2018-07-31T11:29:29.716Z,33.20
2018-07-31T11:32:00.029Z,33.60
2018-07-31T11:34:30.338Z,34.30
2018-07-31T11:37:00.601Z,34.90
2018-07-31T11:39:30.930Z,35.40
2018-07-31T11:42:01.245Z,35.90
2018-07-31T11:44:31.587Z,35.40
2018-07-31T11:47:01.907Z,35.00
2018-07-31T11:49:32.214Z,34.60
2018-07-31T11:52:02.538Z,34.30
2018-07-31T11:54:32.884Z,34.20
2018-07-31T11:57:03.192Z,34.60
2018-07-31T11:59:33.546Z,34.60
2018-07-31T12:02:03.919Z,34.30
2018-07-31T12:04:34.321Z,33.90
2018-07-31T12:09:34.582Z,32.70
2018-07-31T12:12:04.879Z,32.30
2018-07-31T12:14:35.243Z,32.00
2018-07-31T12:17:05.803Z,31.70
2018-07-31T12:19:36.228Z,31.40
2018-07-31T12:22:06.560Z,31.10
2018-07-31T12:24:36.940Z,30.90
2018-07-31T12:27:07.354Z,30.60
2018-07-31T12:32:07.968Z,30.40
2018-07-31T12:34:38.305Z,30.40
2018-07-31T12:37:08.669Z,30.50
2018-07-31T12:39:39.008Z,30.80
2018-07-31T12:42:09.375Z,31.60
2018-07-31T12:44:39.712Z,32.80
2018-07-31T12:47:10.033Z,33.90
2018-07-31T12:49:40.345Z,35.10
2018-07-31T12:52:10.705Z,36.10
2018-07-31T12:54:40.988Z,36.40
2018-07-31T12:57:11.287Z,36.30
2018-07-31T12:59:41.576Z,36.10
2018-07-31T13:02:11.938Z,36.60
2018-07-31T13:04:42.258Z,37.60
2018-07-31T13:07:12.618Z,38.50
2018-07-31T13:09:42.929Z,39.30
2018-07-31T13:12:13.264Z,39.60
2018-07-31T13:14:43.590Z,39.70
2018-07-31T13:17:13.892Z,39.10
2018-07-31T13:19:44.236Z,38.40
2018-07-31T13:22:14.549Z,37.10
2018-07-31T13:24:44.848Z,36.40
2018-07-31T13:27:15.186Z,36.10
2018-07-31T13:29:45.817Z,36.60
2018-07-31T13:32:16.173Z,37.30
2018-07-31T13:34:46.481Z,38.20
2018-07-31T13:37:16.882Z,38.70
2018-07-31T13:39:48.053Z,38.10
2018-07-31T13:42:18.392Z,37.80
2018-07-31T13:44:48.920Z,36.90
2018-07-31T13:47:20.334Z,36.30
2018-07-31T13:49:51.499Z,35.70
2018-07-31T13:52:21.824Z,35.10
2018-07-31T13:54:52.267Z,34.20
2018-07-31T13:59:52.483Z,33.20
2018-07-31T14:02:22.897Z,32.70
2018-07-31T14:04:53.204Z,32.10
2018-07-31T14:07:23.511Z,31.70
2018-07-31T14:09:53.844Z,31.30
2018-07-31T14:12:24.165Z,31.20
2018-07-31T14:14:54.484Z,31.00
2018-07-31T14:17:24.832Z,30.80
2018-07-31T14:19:55.162Z,30.70
2018-07-31T14:22:25.466Z,30.60
2018-07-31T14:24:55.828Z,30.50
2018-07-31T14:27:26.135Z,30.40
2018-07-31T14:29:56.452Z,30.30
2018-07-31T14:32:26.782Z,30.00
2018-07-31T14:34:59.581Z,29.80
2018-07-31T14:37:30.621Z,29.70
2018-07-31T14:40:01.020Z,29.60
2018-07-31T14:42:31.460Z,29.60
2018-07-31T14:45:02.560Z,29.40
2018-07-31T14:47:32.849Z,29.10
2018-07-31T14:50:03.191Z,29.00
2018-07-31T14:52:33.453Z,28.80
2018-07-31T14:55:03.880Z,28.80
2018-07-31T14:57:34.166Z,28.80
2018-07-31T15:00:05.247Z,28.90
2018-07-31T15:05:06.161Z,29.00
2018-07-31T15:07:36.484Z,29.20
2018-07-31T15:10:08.298Z,29.30
2018-07-31T15:12:38.933Z,29.50
2018-07-31T15:15:09.197Z,29.60
2018-07-31T15:17:39.577Z,29.60
2018-07-31T15:20:09.860Z,29.60
2018-07-31T15:22:40.236Z,29.60
2018-07-31T15:25:10.571Z,29.60
2018-07-31T15:27:40.930Z,29.50
2018-07-31T15:30:11.241Z,29.50
2018-07-31T15:32:41.538Z,29.40
2018-07-31T15:35:11.922Z,29.30
2018-07-31T15:37:42.230Z,29.30
2018-07-31T15:40:12.581Z,29.20
2018-07-31T15:42:42.905Z,29.10
2018-07-31T15:45:13.232Z,29.10
2018-07-31T15:47:43.608Z,29.30
2018-07-31T15:50:13.957Z,30.10
2018-07-31T15:52:44.325Z,31.40
2018-07-31T15:55:14.684Z,32.70
2018-07-31T15:57:45.068Z,34.10
2018-07-31T16:00:15.437Z,35.00
2018-07-31T16:02:45.679Z,35.30
2018-07-31T16:05:16.068Z,35.40
2018-07-31T16:07:46.393Z,35.20
2018-07-31T16:10:16.706Z,35.40
2018-07-31T16:12:47.008Z,36.30
2018-07-31T16:15:17.624Z,37.00
2018-07-31T16:17:47.985Z,37.90
2018-07-31T16:20:18.504Z,38.20
2018-07-31T16:22:48.846Z,38.40
2018-07-31T16:25:19.119Z,38.60
2018-07-31T16:27:49.513Z,38.70
2018-07-31T16:32:49.803Z,38.30
2018-07-31T16:35:20.137Z,37.10
2018-07-31T16:37:50.470Z,35.90
2018-07-31T16:40:20.781Z,34.80
2018-07-31T16:42:51.169Z,33.80
2018-07-31T16:50:21.335Z,33.60
2018-07-31T16:52:51.634Z,34.30
2018-07-31T16:57:51.882Z,35.10
2018-07-31T17:00:22.213Z,35.00
2018-07-31T17:02:52.578Z,34.70
2018-07-31T17:05:22.902Z,34.10
2018-07-31T17:07:53.264Z,33.40
2018-07-31T17:10:23.625Z,32.60
2018-07-31T17:12:55.324Z,32.20
2018-07-31T17:15:25.654Z,31.60
2018-07-31T17:17:56.013Z,31.20
2018-07-31T17:20:26.370Z,31.00
2018-07-31T17:22:56.658Z,30.70
2018-07-31T17:27:56.895Z,30.20
2018-07-31T17:32:57.173Z,29.80
2018-07-31T17:35:27.535Z,29.60
2018-07-31T17:37:57.874Z,29.40
2018-07-31T17:40:28.244Z,29.20
2018-07-31T17:42:58.605Z,28.90
2018-07-31T17:45:28.943Z,28.70
2018-07-31T17:47:59.225Z,28.40
2018-07-31T17:50:29.571Z,28.20
2018-07-31T17:52:59.949Z,28.10
2018-07-31T17:55:30.270Z,28.00
2018-07-31T17:58:00.586Z,27.80
2018-07-31T18:00:30.919Z,27.70
2018-07-31T18:03:02.062Z,27.50
2018-07-31T18:05:32.415Z,27.40
2018-07-31T18:08:02.728Z,27.30
2018-07-31T18:10:33.425Z,27.20
2018-07-31T18:13:03.733Z,27.10
2018-07-31T18:15:34.052Z,27.00
2018-07-31T18:18:04.418Z,26.90
2018-07-31T18:20:34.800Z,26.70
2018-07-31T18:23:05.122Z,26.60
2018-07-31T18:25:35.478Z,26.50
2018-07-31T18:28:05.788Z,26.40
2018-07-31T18:30:36.094Z,26.30
2018-07-31T18:33:06.396Z,26.20
2018-07-31T18:35:36.790Z,26.10
2018-07-31T18:38:07.361Z,26.00
2018-07-31T18:40:37.697Z,25.90
2018-07-31T18:43:08.046Z,25.80
2018-07-31T18:45:38.479Z,25.70
2018-07-31T18:48:08.871Z,25.60
2018-07-31T18:50:39.171Z,25.50
2018-07-31T18:53:09.521Z,25.50
2018-07-31T18:55:39.911Z,25.40
2018-07-31T18:58:10.292Z,25.40
2018-07-31T19:00:40.598Z,25.30
2018-07-31T19:03:10.941Z,25.30
2018-07-31T19:05:41.309Z,25.20
2018-07-31T19:08:11.649Z,25.20
2018-07-31T19:10:42.079Z,25.10
2018-07-31T19:13:12.466Z,25.10
2018-07-31T19:15:42.731Z,25.00
2018-07-31T19:18:13.085Z,24.90
2018-07-31T19:20:43.737Z,24.90
2018-07-31T19:23:14.027Z,24.80
2018-07-31T19:25:44.378Z,24.80
2018-07-31T19:28:14.806Z,24.70
2018-07-31T19:30:45.010Z,24.60
2018-07-31T19:33:15.343Z,24.60
2018-07-31T19:35:45.620Z,24.60
2018-07-31T19:38:15.934Z,24.50
2018-07-31T19:40:46.249Z,24.40
2018-07-31T19:43:16.591Z,24.40
2018-07-31T19:45:46.917Z,24.30
2018-07-31T19:48:17.288Z,24.30
2018-07-31T19:50:47.642Z,24.20
2018-07-31T19:53:17.930Z,24.20
2018-07-31T19:55:48.260Z,24.00
2018-07-31T19:58:18.674Z,24.00
2018-07-31T20:00:48.956Z,23.90
2018-07-31T20:03:19.283Z,23.90
2018-07-31T20:05:49.587Z,23.90
2018-07-31T20:08:19.876Z,23.80
2018-07-31T20:10:50.233Z,23.80
2018-07-31T20:13:20.583Z,23.70
2018-07-31T20:15:50.863Z,23.70
2018-07-31T20:18:21.179Z,23.60
2018-07-31T20:20:51.559Z,23.60
2018-07-31T20:23:21.858Z,23.50
2018-07-31T20:25:52.200Z,23.50
2018-07-31T20:28:22.549Z,23.40
2018-07-31T20:30:52.860Z,23.40
2018-07-31T20:33:23.158Z,23.30
2018-07-31T20:35:53.565Z,23.30
2018-07-31T20:38:23.928Z,23.20
2018-07-31T20:40:54.184Z,23.20
2018-07-31T20:43:24.538Z,23.20
2018-07-31T20:45:54.802Z,23.10
2018-07-31T20:48:27.323Z,23.10
2018-07-31T20:50:57.998Z,23.10
2018-07-31T20:53:28.274Z,23.00
2018-07-31T20:55:59.450Z,23.00
2018-07-31T20:58:29.775Z,22.90
2018-07-31T21:03:35.613Z,22.80
2018-07-31T21:06:05.932Z,22.80
2018-07-31T21:08:36.268Z,22.80
2018-07-31T21:11:06.610Z,22.70
2018-07-31T21:13:36.938Z,22.70
2018-07-31T21:16:07.369Z,22.70
2018-07-31T21:18:37.685Z,22.60
2018-07-31T21:21:08.431Z,22.60
2018-07-31T21:23:38.749Z,22.60
2018-07-31T21:26:09.088Z,22.50
2018-07-31T21:28:39.392Z,22.40
2018-07-31T21:31:09.754Z,22.40
2018-07-31T21:33:40.031Z,22.30
2018-07-31T21:36:10.385Z,22.30
2018-07-31T21:38:40.686Z,22.30
2018-07-31T21:41:11.026Z,22.20
2018-07-31T21:43:41.361Z,22.20
2018-07-31T21:46:11.658Z,22.20
2018-07-31T21:48:41.994Z,22.20
2018-07-31T21:51:12.401Z,22.10
2018-07-31T21:53:42.746Z,22.10
2018-07-31T21:56:13.077Z,22.10
2018-07-31T21:58:43.402Z,22.00
2018-07-31T22:01:13.721Z,22.00
2018-07-31T22:03:44.023Z,21.90
2018-07-31T22:06:14.352Z,21.90
2018-07-31T22:08:44.701Z,21.80
2018-07-31T22:11:15.073Z,21.80
2018-07-31T22:13:45.387Z,21.80
2018-07-31T22:16:15.757Z,21.80
2018-07-31T22:18:46.036Z,21.70
2018-07-31T22:21:16.340Z,21.70
2018-07-31T22:23:46.623Z,21.70
2018-07-31T22:26:16.927Z,21.70
2018-07-31T22:28:47.246Z,21.70
2018-07-31T22:31:17.549Z,21.60
2018-07-31T22:33:47.868Z,21.60
2018-07-31T22:36:18.136Z,21.50
2018-07-31T22:38:48.488Z,21.40
2018-07-31T22:41:18.736Z,21.50
2018-07-31T22:43:49.053Z,21.50
2018-07-31T22:46:19.297Z,21.40
2018-07-31T22:48:49.577Z,21.40
2018-07-31T22:51:20.140Z,21.30
2018-07-31T22:53:50.449Z,21.30
2018-07-31T22:56:20.757Z,21.30
2018-07-31T22:58:51.082Z,21.30
2018-07-31T23:01:21.378Z,21.20
2018-07-31T23:03:51.761Z,21.20
2018-07-31T23:06:22.021Z,21.10
2018-07-31T23:08:52.307Z,21.00
2018-07-31T23:11:22.666Z,21.00
2018-07-31T23:13:53.332Z,21.00
2018-07-31T23:16:23.760Z,21.00
2018-07-31T23:18:54.404Z,21.00
2018-07-31T23:21:24.794Z,20.90
2018-07-31T23:23:55.068Z,20.90
2018-07-31T23:26:25.324Z,20.90
2018-07-31T23:28:55.644Z,20.90
2018-07-31T23:31:25.974Z,20.90
2018-07-31T23:33:56.268Z,20.90
2018-07-31T23:36:26.567Z,20.80
2018-07-31T23:38:56.859Z,20.80
2018-07-31T23:41:27.188Z,20.80
2018-07-31T23:43:57.457Z,20.80
2018-07-31T23:46:27.761Z,20.80
2018-07-31T23:48:58.110Z,20.80
2018-07-31T23:51:28.406Z,20.80
2018-07-31T23:53:58.737Z,20.80
2018-07-31T23:56:29.049Z,20.80
2018-07-31T23:58:59.358Z,20.80
